createdAt,value
2018-02-07T00:01:29.198Z,85.85
2018-02-07T00:03:57.483Z,85.82
2018-02-07T00:06:25.776Z,85.37
2018-02-07T00:08:54.054Z,85.00
2018-02-07T00:11:23.125Z,85.54
2018-02-07T00:13:51.411Z,85.82
2018-02-07T00:16:19.707Z,86.12
2018-02-07T00:18:47.975Z,86.10
2018-02-07T00:21:16.268Z,85.68
2018-02-07T00:23:45.326Z,85.32
2018-02-07T00:26:13.628Z,85.19
2018-02-07T00:28:41.931Z,86.05
2018-02-07T00:31:10.992Z,86.56
2018-02-07T00:33:39.273Z,85.92
2018-02-07T00:36:07.595Z,86.04
2018-02-07T00:38:36.627Z,85.88
2018-02-07T00:41:04.943Z,86.14
2018-02-07T00:43:33.214Z,85.86
2018-02-07T00:46:01.523Z,85.66
2018-02-07T00:48:30.555Z,85.85
2018-02-07T00:50:58.844Z,85.80
2018-02-07T00:53:27.142Z,85.81
2018-02-07T00:55:55.422Z,86.41
2018-02-07T00:58:23.974Z,86.38
2018-02-07T01:00:52.258Z,86.28
2018-02-07T01:03:20.520Z,85.99
2018-02-07T01:05:48.808Z,86.37
2018-02-07T01:08:17.068Z,86.58
2018-02-07T01:10:45.374Z,85.81
2018-02-07T01:13:13.638Z,86.38
2018-02-07T01:15:41.949Z,86.12
2018-02-07T01:18:10.231Z,86.60
2018-02-07T01:20:38.509Z,86.51
2018-02-07T01:23:06.817Z,85.82
2018-02-07T01:25:35.847Z,86.08
2018-02-07T01:28:04.416Z,86.98
2018-02-07T01:30:32.721Z,87.22
2018-02-07T01:33:00.986Z,87.09
2018-02-07T01:35:29.292Z,87.06
2018-02-07T01:37:57.576Z,86.44
2018-02-07T01:40:25.866Z,87.05
2018-02-07T01:42:54.127Z,86.99
2018-02-07T01:45:22.444Z,87.22
2018-02-07T01:47:51.486Z,86.98
2018-02-07T01:50:19.762Z,86.85
2018-02-07T01:52:48.080Z,86.76
2018-02-07T01:55:17.136Z,86.82
2018-02-07T01:57:45.444Z,86.52
2018-02-07T02:00:13.716Z,86.95
2018-02-07T02:02:42.007Z,87.40
2018-02-07T02:05:10.287Z,87.44
2018-02-07T02:07:39.328Z,87.11
2018-02-07T02:10:07.661Z,87.08
2018-02-07T02:12:36.708Z,87.45
2018-02-07T02:15:05.017Z,87.28
2018-02-07T02:17:33.279Z,87.41
2018-02-07T02:20:01.571Z,87.86
2018-02-07T02:22:29.890Z,87.70
2018-02-07T02:24:58.951Z,87.26
2018-02-07T02:27:27.264Z,87.41
2018-02-07T02:29:56.307Z,87.69
2018-02-07T02:32:24.593Z,88.12
2018-02-07T02:34:52.900Z,88.05
2018-02-07T02:37:21.964Z,88.60
2018-02-07T02:39:50.526Z,88.14
2018-02-07T02:42:18.799Z,88.11
2018-02-07T02:44:47.088Z,88.49
2018-02-07T02:47:15.362Z,88.43
2018-02-07T02:49:43.655Z,88.27
2018-02-07T02:52:11.935Z,88.02
2018-02-07T02:54:40.222Z,87.94
2018-02-07T02:57:08.567Z,88.21
2018-02-07T02:59:36.837Z,87.98
2018-02-07T03:02:05.121Z,88.11
2018-02-07T03:04:33.431Z,87.94
2018-02-07T03:07:01.702Z,88.18
2018-02-07T03:09:30.002Z,87.95
2018-02-07T03:11:58.279Z,88.02
2018-02-07T03:14:26.544Z,88.18
2018-02-07T03:16:54.849Z,88.14
2018-02-07T03:19:23.911Z,87.69
2018-02-07T03:21:52.187Z,87.79
2018-02-07T03:24:20.464Z,88.00
2018-02-07T03:26:48.780Z,88.42
2018-02-07T03:29:17.824Z,87.90
2018-02-07T03:31:46.120Z,87.56
2018-02-07T03:34:14.389Z,87.49
2018-02-07T03:36:42.656Z,87.59
2018-02-07T03:39:10.974Z,87.49
2018-02-07T03:41:39.260Z,87.25
2018-02-07T03:44:08.304Z,86.87
2018-02-07T03:46:36.622Z,87.61
2018-02-07T03:49:04.914Z,87.17
2018-02-07T03:51:33.973Z,87.33
2018-02-07T03:54:02.265Z,87.32
2018-02-07T03:56:31.622Z,87.44
2018-02-07T03:58:59.899Z,87.59
2018-02-07T04:01:28.179Z,87.36
2018-02-07T04:03:56.467Z,87.11
2018-02-07T04:06:24.758Z,87.48
2018-02-07T04:08:53.036Z,87.48
2018-02-07T04:11:21.331Z,87.50
2018-02-07T04:13:49.599Z,86.97
2018-02-07T04:16:17.914Z,86.37
2018-02-07T04:18:46.945Z,86.31
2018-02-07T04:21:15.276Z,86.06
2018-02-07T04:23:43.512Z,85.88
2018-02-07T04:26:11.790Z,85.72
2018-02-07T04:28:40.104Z,85.67
2018-02-07T04:31:08.396Z,85.44
2018-02-07T04:33:37.462Z,85.70
2018-02-07T04:36:05.761Z,85.63
2018-02-07T04:38:34.047Z,85.51
2018-02-07T04:41:03.093Z,85.67
2018-02-07T04:43:31.393Z,85.48
2018-02-07T04:45:59.680Z,85.34
2018-02-07T04:48:27.999Z,85.48
2018-02-07T04:50:56.277Z,85.58
2018-02-07T04:53:24.583Z,85.38
2018-02-07T04:55:52.880Z,85.48
2018-02-07T04:58:21.164Z,85.30
2018-02-07T05:00:49.454Z,85.13
2018-02-07T05:03:17.715Z,85.12
2018-02-07T05:05:46.004Z,85.14
2018-02-07T05:08:14.287Z,85.18
2018-02-07T05:10:42.580Z,85.24
2018-02-07T05:13:11.652Z,85.08
2018-02-07T05:15:39.917Z,85.13
2018-02-07T05:18:08.189Z,85.06
2018-02-07T05:20:36.476Z,85.20
2018-02-07T05:23:04.772Z,85.25
2018-02-07T05:25:33.040Z,85.17
2018-02-07T05:28:01.336Z,84.97
2018-02-07T05:30:29.612Z,84.87
2018-02-07T05:32:57.945Z,84.96
2018-02-07T05:35:26.245Z,84.90
2018-02-07T05:37:54.560Z,84.97
2018-02-07T05:40:23.629Z,85.39
2018-02-07T05:42:51.909Z,86.02
2018-02-07T05:45:20.217Z,85.93
2018-02-07T05:47:49.263Z,85.65
2018-02-07T05:50:17.614Z,85.54
2018-02-07T05:52:46.659Z,85.42
2018-02-07T05:55:14.955Z,85.15
2018-02-07T05:57:43.226Z,85.08
2018-02-07T06:00:11.520Z,85.06
2018-02-07T06:02:39.803Z,85.40
2018-02-07T06:05:08.094Z,85.24
2018-02-07T06:07:36.386Z,85.52
2018-02-07T06:10:04.662Z,85.54
2018-02-07T06:12:32.938Z,86.09
2018-02-07T06:15:02.006Z,85.94
2018-02-07T06:17:31.451Z,85.86
2018-02-07T06:19:59.732Z,86.16
2018-02-07T06:22:28.025Z,85.86
2018-02-07T06:24:56.300Z,85.98
2018-02-07T06:27:24.587Z,86.38
2018-02-07T06:29:52.888Z,85.94
2018-02-07T06:32:21.949Z,85.74
2018-02-07T06:34:50.260Z,85.68
2018-02-07T06:37:18.535Z,85.84
2018-02-07T06:39:46.831Z,86.23
2018-02-07T06:42:15.127Z,86.77
2018-02-07T06:44:43.393Z,86.80
2018-02-07T06:47:11.693Z,86.33
2018-02-07T06:49:39.990Z,86.10
2018-02-07T06:52:08.305Z,86.34
2018-02-07T06:54:36.592Z,86.36
2018-02-07T06:57:04.858Z,86.55
2018-02-07T06:59:33.154Z,85.92
2018-02-07T07:02:01.424Z,86.57
2018-02-07T07:04:30.503Z,86.68
2018-02-07T07:06:58.763Z,86.46
2018-02-07T07:09:27.083Z,86.25
2018-02-07T07:11:55.340Z,86.00
2018-02-07T07:14:23.628Z,86.00
2018-02-07T07:16:52.714Z,85.91
2018-02-07T07:19:20.969Z,85.98
2018-02-07T07:21:49.255Z,86.30
2018-02-07T07:24:17.545Z,86.49
2018-02-07T07:26:45.835Z,86.16
2018-02-07T07:29:14.878Z,86.44
2018-02-07T07:31:43.166Z,86.99
2018-02-07T07:34:11.444Z,86.47
2018-02-07T07:36:39.715Z,86.64
2018-02-07T07:39:08.016Z,86.65
2018-02-07T07:41:36.304Z,86.44
2018-02-07T07:44:04.609Z,86.52
2018-02-07T07:46:32.975Z,86.40
2018-02-07T07:49:01.249Z,86.82
2018-02-07T07:51:30.011Z,86.76
2018-02-07T07:53:58.272Z,86.77
2018-02-07T07:56:26.540Z,86.59
2018-02-07T07:58:54.861Z,86.73
2018-02-07T08:01:23.137Z,86.56
2018-02-07T08:03:51.547Z,86.87
2018-02-07T08:06:20.570Z,86.69
2018-02-07T08:08:48.872Z,87.32
2018-02-07T08:11:17.161Z,87.79
2018-02-07T08:13:45.451Z,87.54
2018-02-07T08:16:13.761Z,87.52
2018-02-07T08:18:42.819Z,87.75
2018-02-07T08:21:11.110Z,87.50
2018-02-07T08:23:39.367Z,87.25
2018-02-07T08:26:07.670Z,87.07
2018-02-07T08:28:35.987Z,87.50
2018-02-07T08:31:04.323Z,87.69
2018-02-07T08:33:32.604Z,87.48
2018-02-07T08:36:00.887Z,87.89
2018-02-07T08:38:29.176Z,87.84
2018-02-07T08:40:58.229Z,87.73
2018-02-07T08:43:26.523Z,87.64
2018-02-07T08:45:55.121Z,88.39
2018-02-07T08:48:23.398Z,88.14
2018-02-07T08:50:51.685Z,88.34
2018-02-07T08:53:20.777Z,88.38
2018-02-07T08:55:49.051Z,88.31
2018-02-07T08:58:18.114Z,87.17
2018-02-07T09:00:46.421Z,86.94
2018-02-07T09:03:14.719Z,86.25
2018-02-07T09:05:43.040Z,85.53
2018-02-07T09:08:11.320Z,85.06
2018-02-07T09:10:40.026Z,84.45
2018-02-07T09:13:08.313Z,84.13
2018-02-07T09:15:36.575Z,84.12
2018-02-07T09:18:04.945Z,85.07
2018-02-07T09:20:33.243Z,85.08
2018-02-07T09:23:01.567Z,84.33
2018-02-07T09:25:29.863Z,83.95
2018-02-07T09:27:58.240Z,84.53
2018-02-07T09:30:26.940Z,84.37
2018-02-07T09:32:55.235Z,83.76
2018-02-07T09:35:23.534Z,83.50
2018-02-07T09:37:52.142Z,83.31
2018-02-07T09:40:21.461Z,82.79
2018-02-07T09:42:49.734Z,82.43
2018-02-07T09:45:18.018Z,82.42
2018-02-07T09:47:46.326Z,82.23
2018-02-07T09:50:14.606Z,82.05
2018-02-07T09:52:42.996Z,81.79
2018-02-07T09:55:11.300Z,82.08
2018-02-07T09:57:39.621Z,81.98
2018-02-07T10:00:07.914Z,81.86
2018-02-07T10:02:36.184Z,82.13
2018-02-07T10:05:04.484Z,82.32
2018-02-07T10:07:32.792Z,82.65
2018-02-07T10:10:01.083Z,82.03
2018-02-07T10:12:29.383Z,81.95
2018-02-07T10:14:57.686Z,81.33
2018-02-07T10:17:25.982Z,81.00
2018-02-07T10:19:54.252Z,80.89
2018-02-07T10:22:22.562Z,81.10
2018-02-07T10:24:50.851Z,80.74
2018-02-07T10:27:19.154Z,80.24
2018-02-07T10:29:47.425Z,80.03
2018-02-07T10:32:15.722Z,80.05
2018-02-07T10:34:44.019Z,79.90
2018-02-07T10:37:12.310Z,80.23
2018-02-07T10:39:41.378Z,79.93
2018-02-07T10:42:09.673Z,80.42
2018-02-07T10:44:38.264Z,80.77
2018-02-07T10:47:06.586Z,80.66
2018-02-07T10:49:34.842Z,80.15
2018-02-07T10:52:03.941Z,79.70
2018-02-07T10:54:32.236Z,79.67
2018-02-07T10:57:00.956Z,79.19
2018-02-07T10:59:29.239Z,79.84
2018-02-07T11:01:57.516Z,79.44
2018-02-07T11:04:25.848Z,79.61
2018-02-07T11:06:54.170Z,78.95
2018-02-07T11:09:22.886Z,79.10
2018-02-07T11:11:51.190Z,79.20
2018-02-07T11:14:20.282Z,79.16
2018-02-07T11:16:48.664Z,79.20
2018-02-07T11:19:17.033Z,78.78
2018-02-07T11:21:45.412Z,78.13
2018-02-07T11:24:13.776Z,78.21
2018-02-07T11:26:42.081Z,78.02
2018-02-07T11:29:11.129Z,78.14
2018-02-07T11:31:39.441Z,78.45
2018-02-07T11:34:07.776Z,79.04
2018-02-07T11:36:36.121Z,78.62
2018-02-07T11:39:04.441Z,78.17
2018-02-07T11:41:32.708Z,77.82
2018-02-07T11:44:01.006Z,78.13
2018-02-07T11:46:29.335Z,77.91
2018-02-07T11:48:58.402Z,77.55
2018-02-07T11:51:27.250Z,77.94
2018-02-07T11:53:55.543Z,78.20
2018-02-07T11:56:24.585Z,77.67
2018-02-07T11:58:52.888Z,77.31
2018-02-07T12:01:21.228Z,77.56
2018-02-07T12:03:49.533Z,77.54
2018-02-07T12:06:17.809Z,77.09
2018-02-07T12:08:46.890Z,77.17
2018-02-07T12:11:15.150Z,77.47
2018-02-07T12:13:43.447Z,77.52
2018-02-07T12:16:12.519Z,77.44
2018-02-07T12:18:40.792Z,77.32
2018-02-07T12:21:09.075Z,76.72
2018-02-07T12:23:37.364Z,77.11
2018-02-07T12:26:05.630Z,76.82
2018-02-07T12:28:33.933Z,76.64
2018-02-07T12:31:02.231Z,76.87
2018-02-07T12:33:30.539Z,76.14
2018-02-07T12:35:58.808Z,76.11
2018-02-07T12:38:27.111Z,76.10
2018-02-07T12:40:55.390Z,77.05
2018-02-07T12:43:23.680Z,77.24
2018-02-07T12:45:51.985Z,76.02
2018-02-07T12:48:21.033Z,75.84
2018-02-07T12:50:49.323Z,76.41
2018-02-07T12:53:17.590Z,75.61
2018-02-07T12:55:45.859Z,75.84
2018-02-07T12:58:14.164Z,75.91
2018-02-07T13:00:42.446Z,76.02
2018-02-07T13:03:10.746Z,75.92
2018-02-07T13:05:39.873Z,76.13
2018-02-07T13:08:08.180Z,75.98
2018-02-07T13:10:36.457Z,75.47
2018-02-07T13:13:04.735Z,74.20
2018-02-07T13:15:33.023Z,74.32
2018-02-07T13:18:01.274Z,74.63
2018-02-07T13:20:30.060Z,74.91
2018-02-07T13:22:58.342Z,74.85
2018-02-07T13:25:26.627Z,75.18
2018-02-07T13:27:54.925Z,75.07
2018-02-07T13:30:23.208Z,74.96
2018-02-07T13:32:51.500Z,75.09
2018-02-07T13:35:19.780Z,75.39
2018-02-07T13:37:48.082Z,75.01
2018-02-07T13:40:16.367Z,75.27
2018-02-07T13:42:44.661Z,75.21
2018-02-07T13:45:12.932Z,75.07
2018-02-07T13:47:41.226Z,75.37
2018-02-07T13:50:09.557Z,75.13
2018-02-07T13:52:37.794Z,74.86
2018-02-07T13:55:06.079Z,75.35
2018-02-07T13:57:34.377Z,75.08
2018-02-07T14:00:02.658Z,75.13
2018-02-07T14:02:30.934Z,75.27
2018-02-07T14:04:59.219Z,75.42
2018-02-07T14:07:28.281Z,75.78
2018-02-07T14:09:56.539Z,75.53
2018-02-07T14:12:24.846Z,75.50
2018-02-07T14:14:53.141Z,75.50
2018-02-07T14:17:22.206Z,75.51
2018-02-07T14:19:50.484Z,76.09
2018-02-07T14:22:19.550Z,75.23
2018-02-07T14:24:47.868Z,75.41
2018-02-07T14:27:16.154Z,75.56
2018-02-07T14:29:44.453Z,75.95
2018-02-07T14:32:12.741Z,75.74
2018-02-07T14:34:41.788Z,75.96
2018-02-07T14:37:10.065Z,76.25
2018-02-07T14:39:38.353Z,76.03
2018-02-07T14:42:06.683Z,75.63
2018-02-07T14:44:34.945Z,75.76
2018-02-07T14:47:04.022Z,76.01
2018-02-07T14:49:32.296Z,75.97
2018-02-07T14:52:00.582Z,75.83
2018-02-07T14:54:28.886Z,75.77
2018-02-07T14:56:57.141Z,76.96
2018-02-07T14:59:26.222Z,76.19
2018-02-07T15:01:54.497Z,76.15
2018-02-07T15:04:22.767Z,76.35
2018-02-07T15:06:51.058Z,76.78
2018-02-07T15:09:19.345Z,76.45
2018-02-07T15:11:47.641Z,77.00
2018-02-07T15:14:16.666Z,76.90
2018-02-07T15:16:44.959Z,76.73
2018-02-07T15:19:13.257Z,77.01
2018-02-07T15:21:41.506Z,77.59
2018-02-07T15:24:09.819Z,77.73
2018-02-07T15:26:38.075Z,77.43
2018-02-07T15:29:06.367Z,77.03
2018-02-07T15:31:34.643Z,77.15
2018-02-07T15:34:02.918Z,77.32
2018-02-07T15:36:31.217Z,76.70
2018-02-07T15:38:59.504Z,76.62
2018-02-07T15:41:27.872Z,76.05
2018-02-07T15:43:56.130Z,76.59
2018-02-07T15:46:24.449Z,76.86
2018-02-07T15:48:53.503Z,76.32
2018-02-07T15:51:21.851Z,76.58
2018-02-07T15:53:50.185Z,76.62
2018-02-07T15:56:18.472Z,76.51
2018-02-07T15:58:47.536Z,76.62
2018-02-07T16:01:15.801Z,76.65
2018-02-07T16:03:44.071Z,76.76
2018-02-07T16:06:12.415Z,76.72
2018-02-07T16:08:40.787Z,76.71
2018-02-07T16:11:09.858Z,76.83
2018-02-07T16:13:38.164Z,76.98
2018-02-07T16:16:07.343Z,77.36
2018-02-07T16:18:35.670Z,77.52
2018-02-07T16:21:03.958Z,76.93
2018-02-07T16:23:32.996Z,77.84
2018-02-07T16:26:01.468Z,77.85
2018-02-07T16:28:29.861Z,78.23
2018-02-07T16:30:58.188Z,78.34
2018-02-07T16:33:26.471Z,78.50
2018-02-07T16:35:54.809Z,78.45
2018-02-07T16:38:23.924Z,78.37
2018-02-07T16:40:52.240Z,78.52
2018-02-07T16:43:20.654Z,78.86
2018-02-07T16:45:49.072Z,79.15
2018-02-07T16:48:17.881Z,79.21
2018-02-07T16:50:46.711Z,79.37
2018-02-07T16:53:14.988Z,79.87
2018-02-07T16:55:45.496Z,79.54
2018-02-07T16:58:13.767Z,79.86
2018-02-07T17:00:42.060Z,80.13
2018-02-07T17:03:10.406Z,80.24
2018-02-07T17:05:38.792Z,80.29
2018-02-07T17:08:07.114Z,80.25
2018-02-07T17:10:35.472Z,80.46
2018-02-07T17:13:03.776Z,80.98
2018-02-07T17:15:32.514Z,81.00
2018-02-07T17:18:00.809Z,81.28
2018-02-07T17:20:29.076Z,81.48
2018-02-07T17:22:57.379Z,81.70
2018-02-07T17:25:26.061Z,81.98
2018-02-07T17:27:54.336Z,82.38
2018-02-07T17:30:22.679Z,82.63
2018-02-07T17:32:50.960Z,82.56
2018-02-07T17:35:19.270Z,82.55
2018-02-07T17:37:47.977Z,83.01
2018-02-07T17:40:16.279Z,82.45
2018-02-07T17:42:44.585Z,82.67
2018-02-07T17:45:12.884Z,82.76
2018-02-07T17:47:41.472Z,83.26
2018-02-07T17:50:10.164Z,83.44
2018-02-07T17:52:38.842Z,83.15
2018-02-07T17:55:07.152Z,83.04
2018-02-07T17:57:35.487Z,83.02
2018-02-07T18:00:03.796Z,82.74
2018-02-07T18:02:32.075Z,82.66
2018-02-07T18:05:01.001Z,82.39
2018-02-07T18:07:29.310Z,82.31
2018-02-07T18:09:57.610Z,82.21
2018-02-07T18:12:27.083Z,82.43
2018-02-07T18:14:55.388Z,82.78
2018-02-07T18:17:24.520Z,82.67
2018-02-07T18:19:52.839Z,82.75
2018-02-07T18:22:21.545Z,83.22
2018-02-07T18:24:50.624Z,83.04
2018-02-07T18:27:19.021Z,83.11
2018-02-07T18:29:47.287Z,83.33
2018-02-07T18:32:15.588Z,83.48
2018-02-07T18:34:43.888Z,83.67
2018-02-07T18:37:12.219Z,83.70
2018-02-07T18:39:40.525Z,83.98
2018-02-07T18:42:09.269Z,83.84
2018-02-07T18:44:37.570Z,83.52
2018-02-07T18:47:06.314Z,83.49
2018-02-07T18:49:34.605Z,83.53
2018-02-07T18:52:02.942Z,83.44
2018-02-07T18:54:31.252Z,83.27
2018-02-07T18:56:59.549Z,83.10
2018-02-07T18:59:28.883Z,83.36
2018-02-07T19:01:57.209Z,83.23
2018-02-07T19:04:25.496Z,83.35
2018-02-07T19:06:54.248Z,83.58
2018-02-07T19:09:22.563Z,83.77
2018-02-07T19:11:50.852Z,83.70
2018-02-07T19:14:19.177Z,83.48
2018-02-07T19:16:47.562Z,83.67
2018-02-07T19:19:15.861Z,83.67
2018-02-07T19:21:44.261Z,83.92
2018-02-07T19:24:12.639Z,83.90
2018-02-07T19:26:40.965Z,83.70
2018-02-07T19:29:09.270Z,83.96
2018-02-07T19:31:37.606Z,83.80
2018-02-07T19:34:06.730Z,83.43
2018-02-07T19:36:36.925Z,83.15
2018-02-07T19:39:05.263Z,83.48
2018-02-07T19:41:33.559Z,83.81
2018-02-07T19:44:02.743Z,83.67
2018-02-07T19:46:31.831Z,83.41
2018-02-07T19:49:00.128Z,83.22
2018-02-07T19:51:29.177Z,83.30
2018-02-07T19:53:57.442Z,83.50
2018-02-07T19:56:25.737Z,83.62
2018-02-07T19:58:54.843Z,84.04
2018-02-07T20:01:23.159Z,84.03
2018-02-07T20:03:52.214Z,83.62
2018-02-07T20:06:24.695Z,83.42
2018-02-07T20:08:52.965Z,83.49
2018-02-07T20:11:21.272Z,83.50
2018-02-07T20:13:49.577Z,84.08
2018-02-07T20:16:17.854Z,84.26
2018-02-07T20:18:46.926Z,84.10
2018-02-07T20:21:15.206Z,84.18
2018-02-07T20:23:44.257Z,84.01
2018-02-07T20:26:12.560Z,83.69
2018-02-07T20:28:40.870Z,83.83
2018-02-07T20:31:12.057Z,83.73
2018-02-07T20:33:41.062Z,83.75
2018-02-07T20:36:09.365Z,83.82
2018-02-07T20:38:37.663Z,83.83
2018-02-07T20:41:06.764Z,83.75
2018-02-07T20:43:35.844Z,83.62
2018-02-07T20:46:04.154Z,83.71
2018-02-07T20:48:32.449Z,83.64
2018-02-07T20:51:00.728Z,83.92
2018-02-07T20:53:29.038Z,83.93
2018-02-07T20:55:57.378Z,83.79
2018-02-07T20:58:25.634Z,83.66
2018-02-07T21:00:54.692Z,83.63
2018-02-07T21:03:22.989Z,83.50
2018-02-07T21:05:52.286Z,83.28
2018-02-07T21:08:20.565Z,83.30
2018-02-07T21:10:48.857Z,83.27
2018-02-07T21:13:17.939Z,83.16
2018-02-07T21:15:47.031Z,83.31
2018-02-07T21:18:15.335Z,82.92
2018-02-07T21:20:43.654Z,83.06
2018-02-07T21:23:11.957Z,83.08
2018-02-07T21:25:40.264Z,83.23
2018-02-07T21:28:09.319Z,82.81
2018-02-07T21:30:37.889Z,82.54
2018-02-07T21:33:06.216Z,83.01
2018-02-07T21:35:35.272Z,82.90
2018-02-07T21:38:03.589Z,82.70
2018-02-07T21:40:31.868Z,82.87
2018-02-07T21:43:00.966Z,82.69
2018-02-07T21:45:30.034Z,82.37
2018-02-07T21:50:37.156Z,82.73
2018-02-07T21:53:05.470Z,82.92
2018-02-07T21:55:33.938Z,83.02
2018-02-07T21:58:05.985Z,82.92
2018-02-07T22:00:34.303Z,82.86
2018-02-07T22:03:02.618Z,83.14
2018-02-07T22:05:30.922Z,83.33
2018-02-07T22:07:59.271Z,83.22
2018-02-07T22:10:27.581Z,82.34
2018-02-07T22:12:55.897Z,82.11
2018-02-07T22:15:24.219Z,82.44
2018-02-07T22:17:52.513Z,81.90
2018-02-07T22:20:20.837Z,82.07
2018-02-07T22:22:49.155Z,82.55
2018-02-07T22:25:17.448Z,82.12
2018-02-07T22:27:46.549Z,82.03
2018-02-07T22:30:15.655Z,82.28
2018-02-07T22:32:44.741Z,82.15
2018-02-07T22:35:13.964Z,82.84
2018-02-07T22:37:43.037Z,82.82
2018-02-07T22:40:12.182Z,82.53
2018-02-07T22:42:40.563Z,82.80
2018-02-07T22:45:08.879Z,82.87
2018-02-07T22:47:37.222Z,83.01
2018-02-07T22:50:05.546Z,82.93
2018-02-07T22:52:33.842Z,83.39
2018-02-07T22:55:02.944Z,83.25
2018-02-07T22:57:32.020Z,83.05
2018-02-07T23:00:00.311Z,82.69
2018-02-07T23:02:29.397Z,82.22
2018-02-07T23:04:57.696Z,82.61
2018-02-07T23:07:26.772Z,83.26
2018-02-07T23:09:55.040Z,83.53
2018-02-07T23:12:23.448Z,83.29
2018-02-07T23:14:52.511Z,83.56
2018-02-07T23:17:20.853Z,83.40
2018-02-07T23:19:49.175Z,82.89
2018-02-07T23:22:17.517Z,82.60
2018-02-07T23:24:45.854Z,82.85
2018-02-07T23:27:14.880Z,82.60
2018-02-07T23:29:43.196Z,81.93
2018-02-07T23:32:11.495Z,81.90
2018-02-07T23:34:40.561Z,82.50
2018-02-07T23:37:08.896Z,82.35
2018-02-07T23:39:37.176Z,82.76
2018-02-07T23:42:06.283Z,82.69
2018-02-07T23:44:34.586Z,82.78
2018-02-07T23:47:02.924Z,82.80
2018-02-07T23:49:31.251Z,82.71
2018-02-07T23:51:59.576Z,82.80
2018-02-07T23:54:28.658Z,83.25
2018-02-07T23:56:56.955Z,83.01
2018-02-07T23:59:26.022Z,81.74
